Curtiss, WI (54422)

7:15 PM CDT on July 29, 2016 (GMT -0500)
Great Lakes Weather Service HQ | | Change Station

Elev 1430 ft 45.04 °N, 90.34 °W | Updated 5 minutes ago

Clear
Clear
76.8 °F
Feels Like 79 °F
N
2.2
Wind Variable Wind from West

Today
High -- | Low -- °F
--% Chance of Precip.
Yesterday
High -- | Low -- °F
Precip. -- in
Pressure 30.05 in
Visibility 10.0 miles
Clouds Clear
Heat Index 79 °F
Dew Point 63 °F
Humidity 62%
Rainfall 0.00 in
Snow Depth Not available.
5:44 AM 8:31 PM
Waning Crescent, 18% visible
METAR KMDZ 292355Z AUTO 11003KT 10SM CLR 22/17 A3005 RMK AO2 T02200165 10235 20218
Pressure 30.05 in
Visibility 10.0 miles
Clouds Clear
Heat Index 79 °F
Dew Point 63 °F
Humidity 62%
Rainfall 0.00 in
Snow Depth Not available.
5:44 AM 8:31 PM
Waning Crescent, 18% visible
METAR KMDZ 292355Z AUTO 11003KT 10SM CLR 22/17 A3005 RMK AO2 T02200165 10235 20218

10-Day Weather Forecast

Almanac

Astronomy

Jul. 29, 2016 Rise Set
Actual Time
Civil Twilight
Nautical Twilight
Astronomical Twilight
Moon
Length of Visible Light
Length of Day
Tomorrow will be .
, % of the Moon is Illuminated

Today's Extremes

State Highs State Lows

Community

WunderPhotos

Upload Photos

1,928,449 photos uploaded!

WunderBlog® & News

Nearby

Air Quality

  Air Quality AQ Index Pollutant
Not available.

Snow Depth

Station Depth Elevation

Earthquake Activity

City Distance Mag. Time & Date
Minimum magnitude displayed is 2.5.

Coastal Water Temperatures

Place Temperature

Stations

Nearby Weather Stations

Station Location Temp. Windchill Dew Point Humidity Wind Precip. Elev Updated Type
                   

Watches & Warnings

There are currently no watches in effect.